Flight Track Log - Related Links

Times and Time Zones

All times are in EDT time to prevent confusion due to time zone crossing. See the USC110 flight status page for this flight to view local times or setup timezone preferences in your user account.

Time Position Orientation Groundspeed Altitude Reporting Facility
EDT Latitude Longitude Course Direction KTS MPH feet Rate Location/Type
Fri 10:05:38 PM 39.8175 -82.9244 55° Northeast 84 97 1,000  Level Indianapolis Center
Fri 10:06:08 PM 39.8244 -82.9117 55° Northeast 83 96 1,600 1,129 Climbing Indianapolis Center
Fri 10:07:03 PM 39.8386 -82.8889 51° Northeast 94 108 2,600 1,096 Climbing Indianapolis Center
Fri 10:08:03 PM 39.8547 -82.8661 47° Northeast 84 97 3,700 1,091 Climbing Indianapolis Center
Fri 10:09:04 PM 39.8808 -82.8528 21° North 101 116 4,800 1,087 Climbing Indianapolis Center
Fri 10:10:10 PM 39.9056 -82.8319 33° Northeast 96 110 6,000 1,087 Climbing Indianapolis Center
Fri 10:11:11 PM 39.9314 -82.8150 27° Northeast 103 119 7,100 1,033 Climbing Indianapolis Center
Fri 10:12:12 PM 39.9547 -82.7978 29° Northeast 101 116 8,100 836 Climbing Indianapolis Center
Fri 10:13:13 PM 39.9808 -82.7783 30° Northeast 105 121 8,800 446 Climbing Indianapolis Center
Fri 10:14:13 PM 40.0150 -82.7536 29° Northeast 147 169 9,000 98 Climbing Indianapolis Center
Fri 10:15:16 PM 40.0514 -82.7292 27° Northeast 145 167 9,000 -48 Level Indianapolis Center
Fri 10:16:17 PM 40.0908 -82.7031 27° Northeast 153 176 8,900 -50 Descending Indianapolis Center
Fri 10:17:15 PM 40.1311 -82.6767 27° Northeast 154 177 8,900 50 Level Indianapolis Center
Fri 10:18:16 PM 40.1703 -82.6511 26° Northeast 156 180 9,000 49 Climbing Indianapolis Center
Fri 10:19:17 PM 40.2078 -82.6225 30° Northeast 158 182 9,000  Level Indianapolis Center
Fri 10:20:21 PM 40.2456 -82.5958 28° Northeast 158 182 9,000 -50 Level Indianapolis Center
Fri 10:21:18 PM 40.2867 -82.5656 29° Northeast 157 181 8,900  Descending Indianapolis Center
Fri 10:22:23 PM 40.3233 -82.5417 26° Northeast 157 181 9,000 48 Climbing Indianapolis Center
Fri 10:23:24 PM 40.3619 -82.5125 30° Northeast 159 183 9,000 -49 Level Indianapolis Center
Fri 10:24:25 PM 40.4011 -82.4858 27° Northeast 158 182 8,900 -49 Descending Indianapolis Center
Fri 10:25:26 PM 40.4475 -82.4533 28° Northeast 160 184 8,900 49 Level Indianapolis Center
Fri 10:26:27 PM 40.4861 -82.4264 28° Northeast 156 180 9,000 49 Climbing Indianapolis Center
Fri 10:27:29 PM 40.5256 -82.3967 30° Northeast 160 184 9,000  Level Indianapolis Center
Fri 10:28:30 PM 40.5650 -82.3711 26° Northeast 158 182 9,000  Level Indianapolis Center
Fri 10:29:31 PM 40.6036 -82.3400 31° Northeast 159 183 9,000  Level Indianapolis Center
Fri 10:30:32 PM 40.6433 -82.3119 28° Northeast 160 184 9,000  Level Indianapolis Center
Fri 10:31:33 PM 40.6828 -82.2839 28° Northeast 160 184 9,000  Level Indianapolis Center
Fri 10:32:34 PM 40.7225 -82.2556 28° Northeast 160 184 9,000  Level Indianapolis Center
Fri 10:33:35 PM 40.7631 -82.2286 27° Northeast 161 185 9,000  Level Indianapolis Center
Fri 10:34:36 PM 40.8011 -82.1994 30° Northeast 158 182 9,000  Level Indianapolis Center
Fri 10:35:37 PM 40.8414 -82.1728 27° Northeast 160 184 9,000  Level Indianapolis Center
Fri 10:36:39 PM 40.8839 -82.1458 26° Northeast 161 185 9,000  Level Cleveland Center
Fri 10:37:19 PM 40.9072 -82.1272 31° Northeast 159 183 9,000  Level Cleveland Center
Fri 10:37:40 PM 40.9219 -82.1164 29° Northeast 160 184 9,000  Level Cleveland Center
Fri 10:38:20 PM 40.9494 -82.0950 30° Northeast 159 183 9,000 -300 Level Cleveland Center
Fri 10:38:40 PM 40.9597 -82.0897 21° North 159 183 8,700 -814 Descending Cleveland Center
Fri 10:39:19 PM 40.9894 -82.0658 31° Northeast 159 183 8,200 -689 Descending Cleveland Center
Fri 10:39:41 PM 41.0039 -82.0578 23° Northeast 178 205 8,000 -500 Descending Cleveland Center
Fri 10:40:19 PM 41.0336 -82.0336 32° Northeast 164 189 7,700 -492 Descending Cleveland Center
Fri 10:40:42 PM 41.0439 -82.0286 20° North 176 203 7,500 -400 Descending Cleveland Center
Fri 10:41:19 PM 41.0756 -82.0044 30° Northeast 164 189 7,300 -400 Descending Cleveland Center
Fri 10:41:42 PM 41.0883 -81.9964 25° Northeast 165 190 7,100 -500 Descending Cleveland Center
Fri 10:42:19 PM 41.1094 -81.9639 49° Northeast 164 189 6,800 -590 Descending Cleveland Center
Fri 10:42:43 PM 41.1200 -81.9475 49° Northeast 170 196 6,500 -615 Descending Cleveland Center
Fri 10:43:37 PM 41.1539 -81.9042 44° Northeast 178 205 6,000 -522 Descending Cleveland Center
Fri 10:44:38 PM 41.1919 -81.8661 37° Northeast 169 194 5,500 -492 Descending Cleveland Center
Fri 10:45:39 PM 41.2236 -81.8228 46° Northeast 176 203 5,000 -574 Descending Cleveland Center
Fri 10:46:33 PM 41.2594 -81.7875 37° Northeast 174 200 4,400 -626 Descending Cleveland Center
Fri 10:47:34 PM 41.3036 -81.7578 27° Northeast 176 203 3,800 -397 Descending Cleveland Center
Fri 10:48:34 PM 41.3475 -81.7339 22° Northeast 163 188 3,600 -261 Descending Cleveland Center
Fri 10:49:29 PM 41.3853 -81.7150 21° North 162 186 3,300 -310 Descending Cleveland Center
Fri 10:50:30 PM 41.4272 -81.6908 23° Northeast 161 185 3,000 -248 Descending Cleveland Center
Fri 10:51:30 PM 41.4692 -81.6750 16° North 163 188 2,800 -298 Descending Cleveland Center
Fri 10:52:31 PM 41.5028 -81.6394 38° Northeast 163 188 2,400 -836 Descending Cleveland Center
Fri 10:53:32 PM 41.5275 -81.6592 329° Northwest 119 137 1,100 -1,279 Descending Cleveland Center
Fri 10:55:00 PM 41.5167 -81.6667 270° West  Level FlightAware Approximate

Login

Don't have an account? Register now (free) for customized features, flight alerts, and more!